Terminal Aerodrome Forecast
Issued by NWS

Home | Current Version | Previous Version | Text Only | Print | Product List | Glossary On
Versions: 1 2 3 4 5 6 7 8 9 10 11 12 13 14 15 16 17 18 19 20 21 22 23 24 25 26 27
000
FTUS41 KOKX 152326
TAFHPN
TAF
KHPN 152326Z 1600/1624 17005KT P6SM SCT060 SCT120 SCT250
     FM161500 18012G20KT P6SM BKN040
     FM162000 18016G24KT P6SM SHRA BKN035 PROB30 1620/1623
      30015G35KT TSRA BKN025CB
     AMD NOT SKED=

USA.gov is the U.S. government's official web portal to all federal, state and local government web resources and services.